createdAt,value
2018-09-04T00:00:14.549Z,99.90
2018-09-04T00:02:44.128Z,99.90
2018-09-04T00:05:13.352Z,99.90
2018-09-04T00:07:42.492Z,99.90
2018-09-04T00:10:11.956Z,99.90
2018-09-04T00:12:41.637Z,99.90
2018-09-04T00:15:10.832Z,99.90
2018-09-04T00:17:40.940Z,99.90
2018-09-04T00:20:10.148Z,99.90
2018-09-04T00:22:39.349Z,99.90
2018-09-04T00:25:08.580Z,99.90
2018-09-04T00:27:38.547Z,99.90
2018-09-04T00:30:08.216Z,99.90
2018-09-04T00:32:37.336Z,99.90
2018-09-04T00:35:06.813Z,99.90
2018-09-04T00:37:35.971Z,99.90
2018-09-04T00:40:06.340Z,99.90
2018-09-04T00:42:35.488Z,99.90
2018-09-04T00:45:04.808Z,99.90
2018-09-04T00:47:34.117Z,99.90
2018-09-04T00:50:03.240Z,99.90
2018-09-04T00:52:32.512Z,99.90
2018-09-04T00:55:01.680Z,99.90
2018-09-04T00:57:30.880Z,99.90
2018-09-04T01:00:00.608Z,99.90
2018-09-04T01:02:29.792Z,99.90
2018-09-04T01:04:58.955Z,99.90
2018-09-04T01:07:28.080Z,99.90
2018-09-04T01:09:57.272Z,99.90
2018-09-04T01:12:26.512Z,99.90
2018-09-04T01:14:58.274Z,99.90
2018-09-04T01:17:27.480Z,99.90
2018-09-04T01:19:56.608Z,99.90
2018-09-04T01:22:26.060Z,99.90
2018-09-04T01:24:55.232Z,99.90
2018-09-04T01:27:24.328Z,99.90
2018-09-04T01:29:53.496Z,99.90
2018-09-04T01:32:22.603Z,99.90
2018-09-04T01:34:51.631Z,99.90
2018-09-04T01:37:20.783Z,99.90
2018-09-04T01:39:49.904Z,99.90
2018-09-04T01:42:19.296Z,99.90
2018-09-04T01:44:48.628Z,99.90
2018-09-04T01:47:17.757Z,99.90
2018-09-04T01:49:46.928Z,99.90
2018-09-04T01:52:16.292Z,99.90
2018-09-04T01:54:45.645Z,99.90
2018-09-04T01:57:14.776Z,99.90
2018-09-04T01:59:43.880Z,99.90
2018-09-04T02:02:14.276Z,99.90
2018-09-04T02:04:43.420Z,99.90
2018-09-04T02:07:12.744Z,99.90
2018-09-04T02:09:41.904Z,99.90
2018-09-04T02:12:11.094Z,99.90
2018-09-04T02:14:40.352Z,99.90
2018-09-04T02:17:09.844Z,99.90
2018-09-04T02:19:38.940Z,99.90
2018-09-04T02:22:08.140Z,99.90
2018-09-04T02:24:37.540Z,99.90
2018-09-04T02:27:06.712Z,99.90
2018-09-04T02:29:35.783Z,99.90
2018-09-04T02:32:04.887Z,99.90
2018-09-04T02:34:34.076Z,99.90
2018-09-04T02:37:03.300Z,99.90
2018-09-04T02:39:32.384Z,99.90
2018-09-04T02:42:01.476Z,99.90
2018-09-04T02:44:30.909Z,99.90
2018-09-04T02:47:00.068Z,99.90
2018-09-04T02:49:29.266Z,99.90
2018-09-04T02:51:58.471Z,99.90
2018-09-04T02:54:27.580Z,99.90
2018-09-04T02:56:56.697Z,99.90
2018-09-04T02:59:26.493Z,99.90
2018-09-04T03:01:55.676Z,99.90
2018-09-04T03:04:25.292Z,99.90
2018-09-04T03:06:54.992Z,99.90
2018-09-04T03:09:24.083Z,99.90
2018-09-04T03:11:53.520Z,99.90
2018-09-04T03:14:22.892Z,99.90
2018-09-04T03:16:51.976Z,99.90
2018-09-04T03:19:21.071Z,99.90
2018-09-04T03:21:50.213Z,99.90
2018-09-04T03:24:19.413Z,99.90
2018-09-04T03:26:48.468Z,99.90
2018-09-04T03:29:17.556Z,99.90
2018-09-04T03:31:47.684Z,99.90
2018-09-04T03:34:16.884Z,99.90
2018-09-04T03:36:46.116Z,99.90
2018-09-04T03:39:15.700Z,99.90
2018-09-04T03:41:45.129Z,99.90
2018-09-04T03:44:14.614Z,99.90
2018-09-04T03:46:43.688Z,99.90
2018-09-04T03:49:12.924Z,99.90
2018-09-04T03:51:42.328Z,99.90
2018-09-04T03:54:11.487Z,99.90
2018-09-04T03:56:40.696Z,99.90
2018-09-04T03:59:09.888Z,99.90
2018-09-04T04:01:39.128Z,99.90
2018-09-04T04:04:08.193Z,99.90
2018-09-04T04:06:37.253Z,99.90
2018-09-04T04:09:09.172Z,99.90
2018-09-04T04:11:38.240Z,99.90
2018-09-04T04:14:07.888Z,99.90
2018-09-04T04:16:36.971Z,99.90
2018-09-04T04:19:06.130Z,99.90
2018-09-04T04:21:35.323Z,99.90
2018-09-04T04:24:04.450Z,99.90
2018-09-04T04:26:33.656Z,99.90
2018-09-04T04:29:02.844Z,99.90
2018-09-04T04:31:32.332Z,99.90
2018-09-04T04:34:01.560Z,99.90
2018-09-04T04:36:30.672Z,99.90
2018-09-04T04:38:59.756Z,99.90
2018-09-04T04:41:29.152Z,99.90
2018-09-04T04:43:58.320Z,99.90
2018-09-04T04:46:27.464Z,99.90
2018-09-04T04:48:56.840Z,99.90
2018-09-04T04:51:26.016Z,99.90
2018-09-04T04:53:55.206Z,99.90
2018-09-04T04:56:24.312Z,99.90
2018-09-04T04:58:54.548Z,99.90
2018-09-04T05:01:23.961Z,99.90
2018-09-04T05:03:53.086Z,99.90
2018-09-04T05:06:22.221Z,99.90
2018-09-04T05:08:51.367Z,99.90
2018-09-04T05:11:21.495Z,99.90
2018-09-04T05:13:51.296Z,99.90
2018-09-04T05:16:20.729Z,99.90
2018-09-04T05:18:50.881Z,99.90
2018-09-04T05:21:20.101Z,99.90
2018-09-04T05:23:49.159Z,99.90
2018-09-04T05:26:18.238Z,99.90
2018-09-04T05:28:47.699Z,99.90
2018-09-04T05:31:17.745Z,99.90
2018-09-04T05:33:47.620Z,99.90
2018-09-04T05:36:17.309Z,99.90
2018-09-04T05:38:46.613Z,99.90
2018-09-04T05:41:16.500Z,99.90
2018-09-04T05:43:50.258Z,99.90
2018-09-04T05:46:35.068Z,99.90
2018-09-04T05:49:04.164Z,99.90
2018-09-04T05:51:33.391Z,99.90
2018-09-04T05:54:02.889Z,99.90
2018-09-04T05:56:32.072Z,99.90
2018-09-04T05:59:01.288Z,99.90
2018-09-04T06:01:30.662Z,99.90
2018-09-04T06:03:59.824Z,99.90
2018-09-04T06:06:29.880Z,99.90
2018-09-04T06:08:59.852Z,99.90
2018-09-04T06:11:29.097Z,99.90
2018-09-04T06:13:58.206Z,99.90
2018-09-04T06:16:28.413Z,99.90
2018-09-04T06:18:57.508Z,99.90
2018-09-04T06:21:26.748Z,99.90
2018-09-04T06:23:56.081Z,99.90
2018-09-04T06:26:25.143Z,99.90
2018-09-04T06:28:54.472Z,99.90
2018-09-04T06:31:23.805Z,99.90
2018-09-04T06:33:53.235Z,99.90
2018-09-04T06:36:23.341Z,99.90
2018-09-04T06:38:52.475Z,99.90
2018-09-04T06:41:21.624Z,99.90
2018-09-04T06:43:50.962Z,99.90
2018-09-04T06:46:20.078Z,99.90
2018-09-04T06:48:49.160Z,99.90
2018-09-04T06:51:18.466Z,99.90
2018-09-04T06:53:48.152Z,99.90
2018-09-04T06:56:17.287Z,99.90
2018-09-04T06:58:46.336Z,99.90
2018-09-04T07:01:15.560Z,99.90
2018-09-04T07:03:44.859Z,99.90
2018-09-04T07:06:14.032Z,99.90
2018-09-04T07:08:43.208Z,99.90
2018-09-04T07:11:12.780Z,99.90
2018-09-04T07:13:41.935Z,99.90
2018-09-04T07:16:11.134Z,99.90
2018-09-04T07:18:40.329Z,99.90
2018-09-04T07:21:10.587Z,99.90
2018-09-04T07:23:40.773Z,99.90
2018-09-04T07:26:09.944Z,99.90
2018-09-04T07:28:39.045Z,99.90
2018-09-04T07:31:09.122Z,99.90
2018-09-04T07:33:38.372Z,99.90
2018-09-04T07:36:08.024Z,99.90
2018-09-04T07:38:37.388Z,99.90
2018-09-04T07:41:06.589Z,99.90
2018-09-04T07:43:35.841Z,99.90
2018-09-04T07:46:05.076Z,99.90
2018-09-04T07:48:34.234Z,99.90
2018-09-04T07:51:03.380Z,99.90
2018-09-04T07:53:32.620Z,99.90
2018-09-04T07:56:03.300Z,99.90
2018-09-04T07:58:32.501Z,99.90
2018-09-04T08:01:01.844Z,99.90
2018-09-04T08:03:30.892Z,99.90
2018-09-04T08:06:00.129Z,99.90
2018-09-04T08:08:29.333Z,99.90
2018-09-04T08:10:58.829Z,99.90
2018-09-04T08:13:28.342Z,99.90
2018-09-04T08:15:58.450Z,99.90
2018-09-04T08:18:27.849Z,99.90
2018-09-04T08:20:57.748Z,99.90
2018-09-04T08:23:26.915Z,99.90
2018-09-04T08:25:56.981Z,99.90
2018-09-04T08:28:26.160Z,99.90
2018-09-04T08:30:56.206Z,99.90
2018-09-04T08:33:25.410Z,99.90
2018-09-04T08:35:54.804Z,99.90
2018-09-04T08:38:23.844Z,99.90
2018-09-04T08:40:55.212Z,99.90
2018-09-04T08:43:24.417Z,99.90
2018-09-04T08:45:54.436Z,99.90
2018-09-04T08:48:23.532Z,99.90
2018-09-04T08:50:52.873Z,97.00
2018-09-04T08:53:22.937Z,91.40
2018-09-04T08:55:52.552Z,89.00
2018-09-04T08:58:21.680Z,91.50
2018-09-04T09:00:51.009Z,95.20
2018-09-04T09:03:21.269Z,99.90
2018-09-04T09:05:54.814Z,99.90
2018-09-04T09:08:23.986Z,98.60
2018-09-04T09:10:53.157Z,94.20
2018-09-04T09:13:22.929Z,90.90
2018-09-04T09:15:54.256Z,84.50
2018-09-04T09:18:24.889Z,90.70
2018-09-04T09:20:54.609Z,82.80
2018-09-04T09:23:23.710Z,73.10
2018-09-04T09:25:56.064Z,60.10
2018-09-04T09:28:25.431Z,70.40
2018-09-04T09:30:54.561Z,76.90
2018-09-04T09:33:23.703Z,88.90
2018-09-04T09:35:52.833Z,86.90
2018-09-04T09:38:22.405Z,78.00
2018-09-04T09:40:52.532Z,73.10
2018-09-04T09:43:21.568Z,67.60
2018-09-04T09:45:50.941Z,64.00
2018-09-04T09:48:20.036Z,67.80
2018-09-04T09:50:50.175Z,64.30
2018-09-04T09:53:19.487Z,65.00
2018-09-04T09:55:48.533Z,65.40
2018-09-04T09:58:17.743Z,63.20
2018-09-04T10:00:52.846Z,63.60
2018-09-04T10:03:27.196Z,60.70
2018-09-04T10:05:56.313Z,68.50
2018-09-04T10:08:25.405Z,84.70
2018-09-04T10:10:54.644Z,86.70
2018-09-04T10:13:23.707Z,88.10
2018-09-04T10:15:53.508Z,87.10
2018-09-04T10:18:22.992Z,82.50
2018-09-04T10:20:52.126Z,84.30
2018-09-04T10:23:21.241Z,86.50
2018-09-04T10:25:50.589Z,90.10
2018-09-04T10:28:21.020Z,92.00
2018-09-04T10:30:50.151Z,89.70
2018-09-04T10:33:19.315Z,81.40
2018-09-04T10:35:48.777Z,80.90
2018-09-04T10:38:17.812Z,75.90
2018-09-04T10:40:47.836Z,73.80
2018-09-04T10:43:17.172Z,77.80
2018-09-04T10:45:51.652Z,76.50
2018-09-04T10:48:24.525Z,75.80
2018-09-04T10:50:56.853Z,76.90
2018-09-04T10:53:26.073Z,71.60
2018-09-04T10:55:55.399Z,73.00
2018-09-04T10:58:24.653Z,66.90
2018-09-04T11:00:53.836Z,67.30
2018-09-04T11:03:23.212Z,66.50
2018-09-04T11:05:52.570Z,59.80
2018-09-04T11:08:22.403Z,55.40
2018-09-04T11:10:52.888Z,61.60
2018-09-04T11:13:22.084Z,64.70
2018-09-04T11:15:54.669Z,71.90
2018-09-04T11:18:24.319Z,74.90
2018-09-04T11:20:53.577Z,73.50
2018-09-04T11:23:22.788Z,72.30
2018-09-04T11:25:52.834Z,66.80
2018-09-04T11:28:22.298Z,66.00
2018-09-04T11:30:51.596Z,65.50
2018-09-04T11:33:20.840Z,68.10
2018-09-04T11:35:51.596Z,76.00
2018-09-04T11:38:20.712Z,81.30
2018-09-04T11:40:50.347Z,84.30
2018-09-04T11:43:19.721Z,78.70
2018-09-04T11:45:49.807Z,77.00
2018-09-04T11:48:19.033Z,83.60
2018-09-04T11:50:48.157Z,85.00
2018-09-04T11:53:17.281Z,85.60
2018-09-04T11:55:47.540Z,80.20
2018-09-04T11:58:16.760Z,83.80
2018-09-04T12:00:48.768Z,78.00
2018-09-04T12:03:18.014Z,72.20
2018-09-04T12:05:47.366Z,72.10
2018-09-04T12:08:16.368Z,67.20
2018-09-04T12:10:46.396Z,68.70
2018-09-04T12:13:21.050Z,60.80
2018-09-04T12:15:50.615Z,59.60
2018-09-04T12:18:19.844Z,55.40
2018-09-04T12:20:51.058Z,64.90
2018-09-04T12:23:21.028Z,67.70
2018-09-04T12:25:51.609Z,72.00
2018-09-04T12:28:21.060Z,78.70
2018-09-04T12:30:51.172Z,83.40
2018-09-04T12:33:20.336Z,80.30
2018-09-04T12:35:49.648Z,78.70
2018-09-04T12:38:21.036Z,81.70
2018-09-04T12:40:51.033Z,81.50
2018-09-04T12:43:20.503Z,79.80
2018-09-04T12:45:49.612Z,70.20
2018-09-04T12:48:24.568Z,65.40
2018-09-04T12:50:54.864Z,66.40
2018-09-04T12:53:24.988Z,65.60
2018-09-04T12:55:54.192Z,63.80
2018-09-04T12:58:23.284Z,64.10
2018-09-04T13:00:53.712Z,63.20
2018-09-04T13:03:24.839Z,61.70
2018-09-04T13:05:54.285Z,62.00
2018-09-04T13:08:25.125Z,61.80
2018-09-04T13:10:54.289Z,62.80
2018-09-04T13:13:23.404Z,62.90
2018-09-04T13:15:54.200Z,67.10
2018-09-04T13:18:23.821Z,66.50
2018-09-04T13:20:53.104Z,64.70
2018-09-04T13:23:22.328Z,69.10
2018-09-04T13:25:53.141Z,74.20
2018-09-04T13:28:22.401Z,70.90
2018-09-04T13:30:51.500Z,67.10
2018-09-04T13:33:21.577Z,66.20
2018-09-04T13:35:50.693Z,68.20
2018-09-04T13:38:19.908Z,74.60
2018-09-04T13:40:52.368Z,74.50
2018-09-04T13:43:21.680Z,75.10
2018-09-04T13:45:50.841Z,71.80
2018-09-04T13:48:24.056Z,66.50
2018-09-04T13:50:57.302Z,60.50
2018-09-04T13:53:27.259Z,60.60
2018-09-04T13:55:56.822Z,59.20
2018-09-04T13:58:25.979Z,61.90
2018-09-04T14:00:55.196Z,59.60
2018-09-04T14:03:24.536Z,58.50
2018-09-04T14:05:53.832Z,57.90
2018-09-04T14:08:23.120Z,58.50
2018-09-04T14:10:52.420Z,58.60
2018-09-04T14:13:21.472Z,57.10
2018-09-04T14:15:53.104Z,56.30
2018-09-04T14:18:22.292Z,56.90
2018-09-04T14:20:51.492Z,58.90
2018-09-04T14:23:20.776Z,59.50
2018-09-04T14:25:51.328Z,57.10
2018-09-04T14:28:40.973Z,57.30
2018-09-04T14:30:49.664Z,57.70
2018-09-04T14:33:18.796Z,57.60
2018-09-04T14:35:48.020Z,58.60
2018-09-04T14:38:17.100Z,62.80
2018-09-04T14:40:46.432Z,65.90
2018-09-04T14:43:15.637Z,63.90
2018-09-04T14:45:44.804Z,65.80
2018-09-04T14:48:14.182Z,67.10
2018-09-04T14:50:43.266Z,66.70
2018-09-04T14:53:12.398Z,68.60
2018-09-04T14:55:41.612Z,68.70
2018-09-04T14:58:10.685Z,70.40
2018-09-04T15:00:40.804Z,75.60
2018-09-04T15:03:10.286Z,77.40
2018-09-04T15:05:39.380Z,75.80
2018-09-04T15:08:08.500Z,78.00
2018-09-04T15:10:37.874Z,80.00
2018-09-04T15:13:07.088Z,82.50
2018-09-04T15:15:36.167Z,82.20
2018-09-04T15:18:05.736Z,82.50
2018-09-04T15:20:34.833Z,82.20
2018-09-04T15:23:04.641Z,83.00
2018-09-04T15:25:33.872Z,82.70
2018-09-04T15:28:03.639Z,82.60
2018-09-04T15:30:33.039Z,84.60
